createdAt,value
2018-08-23T00:01:18.677Z,6.27
2018-08-23T00:03:47.539Z,7.63
2018-08-23T00:06:16.255Z,8.37
2018-08-23T00:08:48.773Z,8.77
2018-08-23T00:11:21.987Z,6.60
2018-08-23T00:13:50.787Z,5.30
2018-08-23T00:16:35.462Z,7.33
2018-08-23T00:19:04.931Z,5.00
2018-08-23T00:21:38.097Z,6.70
2018-08-23T00:24:19.710Z,6.10
2018-08-23T00:26:51.443Z,9.30
2018-08-23T00:29:26.526Z,6.13
2018-08-23T00:31:57.228Z,6.03
2018-08-23T00:34:28.684Z,5.93
2018-08-23T00:36:57.786Z,7.60
2018-08-23T00:39:27.197Z,6.80
2018-08-23T00:42:01.090Z,5.83
2018-08-23T00:44:34.215Z,6.53
2018-08-23T00:47:02.877Z,8.17
2018-08-23T00:49:33.200Z,5.90
2018-08-23T00:52:01.998Z,10.00
2018-08-23T00:54:30.742Z,5.97
2018-08-23T00:56:59.473Z,7.60
2018-08-23T00:59:28.151Z,6.30
2018-08-23T01:02:13.549Z,6.73
2018-08-23T01:04:45.707Z,6.13
2018-08-23T01:07:19.137Z,6.20
2018-08-23T01:09:47.832Z,7.80
2018-08-23T01:12:16.688Z,8.37
2018-08-23T01:14:45.430Z,5.53
2018-08-23T01:17:16.898Z,8.13
2018-08-23T01:19:50.925Z,6.63
2018-08-23T01:22:19.737Z,6.20
2018-08-23T01:24:50.459Z,6.70
2018-08-23T01:27:24.202Z,5.00
2018-08-23T01:29:53.342Z,7.07
2018-08-23T01:32:27.162Z,6.57
2018-08-23T01:34:55.907Z,7.60
2018-08-23T01:37:36.112Z,5.97
2018-08-23T01:40:06.946Z,6.77
2018-08-23T01:42:36.694Z,7.03
2018-08-23T01:45:06.625Z,8.57
2018-08-23T01:47:42.368Z,7.57
2018-08-23T01:50:11.809Z,10.83
2018-08-23T01:52:48.603Z,5.33
2018-08-23T01:55:18.103Z,5.83
2018-08-23T01:57:47.153Z,5.80
2018-08-23T02:00:19.793Z,7.20
2018-08-23T02:02:48.643Z,6.50
2018-08-23T02:05:17.455Z,6.03
2018-08-23T02:07:46.185Z,6.63
2018-08-23T02:10:15.042Z,9.67
2018-08-23T02:12:48.782Z,10.73
2018-08-23T02:15:17.521Z,6.83
2018-08-23T02:17:51.381Z,8.93
2018-08-23T02:20:20.109Z,7.17
2018-08-23T02:22:48.868Z,7.23
2018-08-23T02:25:17.631Z,6.77
2018-08-23T02:28:09.255Z,7.00
2018-08-23T02:30:54.720Z,9.60
2018-08-23T02:33:23.484Z,7.90
2018-08-23T02:36:00.156Z,9.00
2018-08-23T02:38:29.845Z,7.33
2018-08-23T02:40:58.655Z,6.17
2018-08-23T02:43:27.359Z,9.57
2018-08-23T02:45:56.049Z,8.00
2018-08-23T02:48:25.185Z,11.13
2018-08-23T02:50:54.572Z,7.10
2018-08-23T02:53:33.808Z,8.07
2018-08-23T02:56:08.616Z,7.20
2018-08-23T02:58:59.196Z,4.97
2018-08-23T03:01:30.092Z,7.07
2018-08-23T03:04:08.559Z,7.53
2018-08-23T03:07:12.714Z,6.33
2018-08-23T03:09:44.380Z,9.87
2018-08-23T03:12:17.394Z,6.43
2018-08-23T03:14:46.306Z,11.80
2018-08-23T03:17:20.748Z,9.43
2018-08-23T03:20:14.704Z,9.07
2018-08-23T03:22:44.750Z,7.43
2018-08-23T03:25:14.776Z,9.37
2018-08-23T03:27:43.493Z,7.03
2018-08-23T03:30:13.973Z,10.37
2018-08-23T03:32:42.813Z,7.43
2018-08-23T03:35:11.527Z,7.50
2018-08-23T03:37:40.190Z,7.33
2018-08-23T03:40:10.082Z,8.80
2018-08-23T03:42:38.848Z,7.20
2018-08-23T03:45:12.546Z,8.53
2018-08-23T03:47:46.384Z,8.07
2018-08-23T03:50:15.054Z,12.87
2018-08-23T03:52:50.106Z,6.73
2018-08-23T03:55:22.683Z,8.53
2018-08-23T03:57:57.419Z,5.63
2018-08-23T04:00:31.319Z,7.87
2018-08-23T04:03:02.109Z,9.97
2018-08-23T04:05:30.834Z,9.97
2018-08-23T04:07:59.571Z,9.13
2018-08-23T04:10:28.384Z,12.50
2018-08-23T04:12:57.090Z,8.97
2018-08-23T04:15:31.689Z,9.63
2018-08-23T04:18:11.967Z,7.93
2018-08-23T04:20:51.455Z,8.47
2018-08-23T04:23:20.425Z,13.03
2018-08-23T04:25:49.140Z,8.80
2018-08-23T04:28:17.900Z,10.63
2018-08-23T04:30:46.683Z,10.27
2018-08-23T04:33:15.387Z,9.70
2018-08-23T04:35:44.108Z,11.13
2018-08-23T04:38:12.894Z,10.00
2018-08-23T04:40:51.418Z,8.63
2018-08-23T04:43:20.222Z,10.77
2018-08-23T04:45:48.939Z,13.17
2018-08-23T04:48:17.710Z,10.27
2018-08-23T04:50:46.492Z,17.77
2018-08-23T04:53:15.202Z,16.50
2018-08-23T04:55:44.001Z,16.33
2018-08-23T04:58:12.980Z,15.17
2018-08-23T05:00:41.654Z,10.83
2018-08-23T05:03:10.367Z,7.37
2018-08-23T05:05:39.064Z,7.13
2018-08-23T05:08:07.787Z,7.93
2018-08-23T05:10:36.475Z,8.57
2018-08-23T05:13:05.211Z,12.63
2018-08-23T05:15:33.908Z,8.43
2018-08-23T05:18:02.610Z,10.67
2018-08-23T05:20:31.330Z,12.33
2018-08-23T05:23:03.967Z,9.77
2018-08-23T05:25:32.674Z,14.73
2018-08-23T05:28:18.879Z,10.33
2018-08-23T05:30:48.255Z,10.47
2018-08-23T05:33:22.886Z,15.83
2018-08-23T05:35:51.691Z,10.20
2018-08-23T05:38:20.783Z,11.57
2018-08-23T05:40:58.266Z,10.23
2018-08-23T05:43:26.967Z,10.33
2018-08-23T05:45:56.686Z,9.43
2018-08-23T05:48:32.521Z,14.30
2018-08-23T05:51:06.227Z,10.27
2018-08-23T05:53:38.603Z,10.70
2018-08-23T05:56:07.935Z,10.60
2018-08-23T05:58:36.663Z,11.73
2018-08-23T06:01:05.448Z,14.40
2018-08-23T06:03:34.326Z,11.63
2018-08-23T06:06:03.007Z,11.53
2018-08-23T06:08:31.719Z,11.67
2018-08-23T06:11:06.048Z,14.60
2018-08-23T06:13:34.755Z,11.83
2018-08-23T06:16:03.568Z,13.23
2018-08-23T06:18:32.363Z,10.57
2018-08-23T06:21:01.207Z,12.30
2018-08-23T06:24:06.350Z,10.33
2018-08-23T06:26:47.082Z,9.33
2018-08-23T06:29:21.078Z,14.87
2018-08-23T06:31:57.768Z,15.33
2018-08-23T06:34:28.963Z,15.00
2018-08-23T06:36:57.746Z,11.90
2018-08-23T06:39:26.554Z,11.73
2018-08-23T06:41:58.142Z,11.60
2018-08-23T06:44:33.922Z,11.63
2018-08-23T06:47:02.659Z,16.67
2018-08-23T06:49:31.365Z,13.13
2018-08-23T06:52:08.219Z,14.90
2018-08-23T06:54:36.913Z,13.07
2018-08-23T06:57:05.619Z,21.20
2018-08-23T06:59:34.355Z,15.10
2018-08-23T07:02:03.097Z,10.20
2018-08-23T07:04:31.878Z,13.20
2018-08-23T07:07:00.615Z,12.80
2018-08-23T07:09:29.388Z,13.50
2018-08-23T07:12:05.526Z,12.30
2018-08-23T07:14:35.479Z,13.73
2018-08-23T07:17:17.097Z,14.83
2018-08-23T07:19:46.675Z,11.77
2018-08-23T07:22:29.648Z,10.90
2018-08-23T07:24:58.743Z,14.63
2018-08-23T07:27:27.516Z,13.50
2018-08-23T07:29:57.491Z,11.90
2018-08-23T07:32:27.323Z,15.07
2018-08-23T07:35:07.452Z,10.77
2018-08-23T07:37:37.403Z,13.13
2018-08-23T07:40:23.008Z,10.60
2018-08-23T07:42:53.174Z,9.03
2018-08-23T07:45:21.911Z,12.17
2018-08-23T07:47:52.321Z,9.10
2018-08-23T07:50:21.143Z,11.03
2018-08-23T07:52:51.204Z,10.23
2018-08-23T07:55:19.933Z,10.53
2018-08-23T07:57:49.102Z,12.37
2018-08-23T08:00:40.534Z,12.53
2018-08-23T08:03:10.363Z,10.77
2018-08-23T08:05:45.021Z,11.40
2018-08-23T08:08:14.301Z,9.77
2018-08-23T08:10:44.434Z,14.67
2018-08-23T08:13:13.138Z,11.17
2018-08-23T08:15:41.906Z,15.77
2018-08-23T08:18:28.512Z,13.43
2018-08-23T08:21:29.208Z,18.17
2018-08-23T08:23:58.852Z,10.37
2018-08-23T08:26:30.453Z,14.77
2018-08-23T08:28:59.126Z,11.70
2018-08-23T08:31:27.896Z,8.87
2018-08-23T08:33:58.584Z,14.10
2018-08-23T08:36:30.201Z,11.20
2018-08-23T08:38:59.374Z,11.43
2018-08-23T08:41:32.674Z,11.73
2018-08-23T08:44:01.532Z,15.00
2018-08-23T08:46:30.266Z,13.23
2018-08-23T08:48:59.090Z,15.17
2018-08-23T08:51:30.908Z,14.30
2018-08-23T08:54:00.917Z,10.33
2018-08-23T08:56:48.124Z,9.27
2018-08-23T08:59:16.934Z,12.25
2018-08-23T09:01:45.624Z,16.07
2018-08-23T09:04:19.564Z,9.13
2018-08-23T09:06:48.362Z,11.83
2018-08-23T09:09:26.115Z,10.93
2018-08-23T09:11:55.027Z,11.13
2018-08-23T09:14:23.715Z,10.33
2018-08-23T09:16:52.493Z,11.30
2018-08-23T09:19:21.225Z,9.13
2018-08-23T09:22:05.674Z,11.93
2018-08-23T09:24:34.440Z,12.37
2018-08-23T09:27:03.262Z,13.13
2018-08-23T09:29:38.384Z,9.30
2018-08-23T09:32:19.231Z,13.47
2018-08-23T09:34:48.262Z,8.75
2018-08-23T09:37:16.963Z,9.90
2018-08-23T09:39:46.966Z,15.48
2018-08-23T09:42:15.671Z,7.95
2018-08-23T09:45:00.296Z,14.90
2018-08-23T09:47:29.695Z,8.95
2018-08-23T09:49:59.283Z,12.03
2018-08-23T09:52:29.850Z,12.68
2018-08-23T09:54:58.615Z,10.78
2018-08-23T09:57:27.336Z,8.88
2018-08-23T09:59:56.956Z,7.92
2018-08-23T10:02:30.895Z,13.80
2018-08-23T10:05:04.659Z,8.85
2018-08-23T10:07:38.596Z,8.65
2018-08-23T10:10:12.524Z,10.23
2018-08-23T10:12:46.432Z,9.00
2018-08-23T10:15:20.333Z,11.30
2018-08-23T10:17:54.247Z,9.80
2018-08-23T10:20:28.153Z,8.88
2018-08-23T10:23:16.078Z,8.13
2018-08-23T10:25:46.075Z,9.83
2018-08-23T10:28:16.025Z,12.75
2018-08-23T10:30:45.055Z,9.65
2018-08-23T10:33:13.856Z,7.62
2018-08-23T10:35:48.843Z,7.75
2018-08-23T10:38:19.544Z,7.75
2018-08-23T10:40:49.261Z,9.38
2018-08-23T10:43:22.090Z,7.90
2018-08-23T10:45:50.826Z,10.48
2018-08-23T10:48:20.153Z,10.25
2018-08-23T10:50:50.086Z,8.60
2018-08-23T10:53:19.171Z,7.83
2018-08-23T10:55:47.895Z,9.98
2018-08-23T10:58:16.592Z,8.38
2018-08-23T11:00:45.350Z,8.88
2018-08-23T11:03:14.271Z,7.00
2018-08-23T11:05:43.113Z,11.60
2018-08-23T11:08:17.162Z,9.65
2018-08-23T11:10:50.921Z,8.33
2018-08-23T11:13:25.045Z,11.08
2018-08-23T11:15:59.090Z,8.95
2018-08-23T11:18:33.090Z,7.17
2018-08-23T11:21:01.843Z,12.23
2018-08-23T11:23:30.570Z,7.45
2018-08-23T11:25:59.330Z,7.50
2018-08-23T11:28:28.189Z,8.05
2018-08-23T11:31:02.443Z,6.90
2018-08-23T11:33:31.160Z,6.83
2018-08-23T11:35:59.954Z,9.00
2018-08-23T11:38:28.758Z,7.72
2018-08-23T11:40:57.419Z,10.28
2018-08-23T11:43:26.157Z,6.53
2018-08-23T11:46:01.929Z,9.20
2018-08-23T11:48:31.017Z,7.37
2018-08-23T11:50:59.786Z,7.40
2018-08-23T11:53:28.953Z,7.00
2018-08-23T11:55:57.406Z,7.30
2018-08-23T11:58:26.182Z,6.58
2018-08-23T12:00:59.016Z,10.58
2018-08-23T12:03:27.748Z,7.65
2018-08-23T12:05:56.433Z,7.58
2018-08-23T12:08:25.158Z,9.78
2018-08-23T12:10:53.984Z,8.33
2018-08-23T12:13:22.646Z,6.53
2018-08-23T12:15:51.393Z,8.30
2018-08-23T12:18:20.180Z,6.00
2018-08-23T12:20:48.847Z,6.92
2018-08-23T12:23:17.568Z,6.37
2018-08-23T12:25:46.387Z,7.45
2018-08-23T12:28:20.243Z,6.70
2018-08-23T12:30:49.103Z,12.37
2018-08-23T12:33:17.863Z,8.08
2018-08-23T12:35:46.703Z,8.25
2018-08-23T12:38:21.491Z,6.40
2018-08-23T12:40:55.382Z,8.60
2018-08-23T12:43:29.285Z,10.63
2018-08-23T12:46:01.819Z,6.83
2018-08-23T12:48:30.547Z,9.10
2018-08-23T12:50:59.569Z,10.50
2018-08-23T12:53:29.581Z,8.68
2018-08-23T12:55:58.399Z,7.33
2018-08-23T12:58:27.099Z,7.97
2018-08-23T13:00:55.818Z,5.95
2018-08-23T13:03:24.579Z,6.37
2018-08-23T13:05:53.443Z,7.03
2018-08-23T13:08:22.195Z,9.55
2018-08-23T13:10:50.928Z,5.72
2018-08-23T13:13:19.612Z,5.17
2018-08-23T13:15:48.358Z,6.25
2018-08-23T13:18:17.159Z,7.28
2018-08-23T13:20:45.836Z,6.95
2018-08-23T13:23:14.606Z,5.45
2018-08-23T13:25:48.602Z,5.80
2018-08-23T13:28:17.412Z,5.67
2018-08-23T13:30:46.214Z,5.65
2018-08-23T13:33:14.991Z,5.72
2018-08-23T13:35:43.712Z,5.35
2018-08-23T13:38:12.550Z,5.35
2018-08-23T13:40:41.446Z,7.83
2018-08-23T13:43:10.139Z,7.78
2018-08-23T13:45:38.897Z,7.30
2018-08-23T13:48:07.805Z,10.03
2018-08-23T13:50:36.610Z,6.30
2018-08-23T13:53:05.366Z,7.17
2018-08-23T13:55:34.270Z,9.13
2018-08-23T13:58:02.994Z,6.25
2018-08-23T14:00:36.967Z,6.80
2018-08-23T14:03:05.779Z,7.55
2018-08-23T14:05:34.582Z,9.33
2018-08-23T14:08:03.339Z,7.83
2018-08-23T14:10:32.128Z,5.67
2018-08-23T14:13:00.929Z,5.87
2018-08-23T14:15:34.799Z,7.28
2018-08-23T14:18:03.511Z,8.23
2018-08-23T14:20:32.304Z,7.70
2018-08-23T14:23:01.023Z,8.75
2018-08-23T14:25:29.777Z,5.10
2018-08-23T14:27:58.422Z,5.72
2018-08-23T14:30:27.278Z,5.35
2018-08-23T14:32:56.046Z,8.38
2018-08-23T14:35:24.775Z,5.97
2018-08-23T14:37:53.519Z,5.92
2018-08-23T14:40:22.247Z,7.95
2018-08-23T14:42:50.930Z,9.65
2018-08-23T14:45:24.912Z,6.62
2018-08-23T14:47:58.746Z,5.83
2018-08-23T14:50:27.448Z,6.47
2018-08-23T14:52:56.165Z,5.15
2018-08-23T14:55:30.390Z,7.70
2018-08-23T14:57:59.096Z,11.08
2018-08-23T15:00:27.847Z,6.92
2018-08-23T15:02:56.604Z,5.87
2018-08-23T15:05:25.373Z,6.10
2018-08-23T15:07:54.092Z,6.80
2018-08-23T15:10:22.892Z,9.35
2018-08-23T15:12:51.716Z,8.65
2018-08-23T15:15:24.606Z,8.78
2018-08-23T15:18:02.110Z,10.75
2018-08-23T15:20:30.807Z,7.75
2018-08-23T15:22:59.513Z,6.42
2018-08-23T15:25:28.166Z,5.90
2018-08-23T15:27:56.852Z,8.15
2018-08-23T15:30:25.542Z,6.00
2018-08-23T15:32:54.282Z,7.05
2018-08-23T15:35:22.959Z,9.48
2018-08-23T15:37:51.727Z,8.23
2018-08-23T15:40:20.720Z,6.78
2018-08-23T15:42:49.523Z,9.80
2018-08-23T15:45:19.123Z,6.10
2018-08-23T15:47:47.880Z,6.17
2018-08-23T15:50:16.618Z,11.10
2018-08-23T15:52:45.348Z,8.03
2018-08-23T15:55:14.228Z,8.03
2018-08-23T15:57:42.868Z,7.30
2018-08-23T16:00:11.624Z,7.67
2018-08-23T16:02:40.328Z,7.40
2018-08-23T16:05:09.224Z,5.42
2018-08-23T16:07:38.101Z,8.48
2018-08-23T16:10:08.503Z,7.05
2018-08-23T16:12:37.415Z,6.67
2018-08-23T16:15:11.433Z,6.33
2018-08-23T16:17:45.293Z,8.30
2018-08-23T16:20:19.251Z,8.13
2018-08-23T16:22:47.969Z,8.43
2018-08-23T16:25:16.659Z,8.48
2018-08-23T16:27:45.416Z,11.05
2018-08-23T16:30:15.579Z,9.53
2018-08-23T16:32:44.286Z,8.70
2018-08-23T16:35:13.024Z,8.35
2018-08-23T16:37:41.720Z,10.25
2018-08-23T16:40:10.511Z,9.85
2018-08-23T16:42:39.256Z,10.50
2018-08-23T16:45:08.020Z,9.28
2018-08-23T16:47:36.778Z,7.08
2018-08-23T16:50:05.600Z,7.87
2018-08-23T16:52:34.293Z,10.32
2018-08-23T16:55:02.976Z,8.25
2018-08-23T16:57:31.656Z,9.85
2018-08-23T17:00:00.382Z,10.48
2018-08-23T17:02:29.087Z,8.65
2018-08-23T17:04:57.869Z,15.70
2018-08-23T17:07:26.566Z,13.93
2018-08-23T17:09:55.264Z,7.55
2018-08-23T17:12:24.065Z,14.00
2018-08-23T17:14:52.748Z,10.45
2018-08-23T17:17:27.828Z,13.17
2018-08-23T17:19:56.722Z,11.50
2018-08-23T17:22:26.235Z,13.07
2018-08-23T17:24:55.007Z,12.37
2018-08-23T17:27:23.688Z,10.38
2018-08-23T17:29:52.369Z,10.07
2018-08-23T17:32:21.084Z,10.60
2018-08-23T17:34:49.774Z,12.20
2018-08-23T17:37:18.452Z,9.70
2018-08-23T17:39:47.242Z,15.60
2018-08-23T17:42:16.566Z,17.77
2018-08-23T17:44:45.324Z,20.47
2018-08-23T17:47:14.105Z,10.33
2018-08-23T17:49:42.894Z,12.77
2018-08-23T17:52:11.634Z,13.17
2018-08-23T17:54:40.399Z,17.77
2018-08-23T17:57:09.143Z,15.83
2018-08-23T17:59:38.805Z,16.13
2018-08-23T18:02:07.541Z,12.70
2018-08-23T18:04:36.250Z,10.40
2018-08-23T18:07:07.665Z,11.80
2018-08-23T18:09:36.353Z,11.03
2018-08-23T18:12:05.137Z,10.83
2018-08-23T18:14:33.884Z,10.37
2018-08-23T18:17:02.607Z,14.87
2018-08-23T18:24:20.998Z,11.90
2018-08-23T18:26:49.674Z,12.63
2018-08-23T18:29:18.417Z,10.30
2018-08-23T18:31:47.150Z,16.50
2018-08-23T18:34:15.865Z,9.87
2018-08-23T18:36:44.622Z,18.83
2018-08-23T18:39:13.298Z,14.07
2018-08-23T18:41:42.163Z,14.17
2018-08-23T18:44:10.874Z,11.07
2018-08-23T18:46:39.539Z,12.40
2018-08-23T18:49:08.218Z,14.03
2018-08-23T18:51:36.903Z,13.47
2018-08-23T18:54:05.761Z,10.97
2018-08-23T18:56:34.427Z,16.23
2018-08-23T18:59:03.153Z,16.97
2018-08-23T19:01:34.789Z,13.20
2018-08-23T19:04:04.325Z,13.43
2018-08-23T19:06:37.314Z,11.53
2018-08-23T19:09:12.544Z,10.93
2018-08-23T19:11:42.194Z,18.57
2018-08-23T19:14:12.582Z,10.63
2018-08-23T19:16:47.084Z,15.40
2018-08-23T19:19:15.785Z,12.97
2018-08-23T19:21:44.543Z,13.07
2018-08-23T19:24:13.234Z,12.60
2018-08-23T19:26:42.003Z,10.70
2018-08-23T19:29:10.714Z,13.40
2018-08-23T19:31:39.504Z,12.00
2018-08-23T19:34:08.232Z,9.03
2018-08-23T19:36:36.971Z,8.40
2018-08-23T19:39:09.270Z,8.00
2018-08-23T19:41:38.003Z,10.43
2018-08-23T19:44:06.798Z,8.83
2018-08-23T19:46:40.624Z,8.23
2018-08-23T19:49:14.600Z,10.03
2018-08-23T19:51:43.341Z,9.47
2018-08-23T19:54:12.058Z,8.63
2018-08-23T19:56:40.768Z,7.93
2018-08-23T19:59:09.715Z,8.23
2018-08-23T20:01:38.455Z,8.37
2018-08-23T20:04:07.233Z,7.63
2018-08-23T20:06:35.941Z,8.73
2018-08-23T20:09:06.691Z,7.30
2018-08-23T20:11:35.424Z,7.90
2018-08-23T20:14:04.226Z,9.67
2018-08-23T20:16:33.001Z,14.93
2018-08-23T20:19:01.800Z,7.57
2018-08-23T20:21:30.519Z,8.70
2018-08-23T20:23:59.261Z,8.07
2018-08-23T20:26:28.279Z,7.37
2018-08-23T20:28:57.066Z,7.57
2018-08-23T20:31:25.822Z,9.50
2018-08-23T20:33:54.542Z,8.03
2018-08-23T20:36:23.236Z,10.43
2018-08-23T20:38:51.987Z,10.47
2018-08-23T20:41:20.708Z,9.77
2018-08-23T20:43:49.409Z,9.83
2018-08-23T20:46:18.166Z,8.87
2018-08-23T20:48:46.896Z,8.77
2018-08-23T20:51:15.630Z,7.30
2018-08-23T20:53:44.316Z,7.33
2018-08-23T20:56:13.051Z,9.00
2018-08-23T20:58:41.782Z,10.77
2018-08-23T21:01:10.505Z,7.70
2018-08-23T21:03:39.214Z,7.80
2018-08-23T21:06:07.942Z,7.77
2018-08-23T21:08:36.650Z,7.77
2018-08-23T21:11:05.429Z,6.20
2018-08-23T21:13:34.254Z,7.00
2018-08-23T21:16:02.951Z,7.83
2018-08-23T21:18:31.637Z,8.00
2018-08-23T21:21:00.455Z,7.27
2018-08-23T21:23:29.196Z,6.60
2018-08-23T21:25:57.890Z,6.73
2018-08-23T21:28:26.581Z,6.73
2018-08-23T21:30:55.476Z,7.13
2018-08-23T21:33:24.237Z,9.17
2018-08-23T21:35:52.910Z,9.47
2018-08-23T21:38:21.608Z,9.50
2018-08-23T21:40:50.315Z,9.07
2018-08-23T21:43:18.986Z,8.43
2018-08-23T21:45:47.746Z,8.97
2018-08-23T21:48:16.527Z,8.27
2018-08-23T21:50:45.270Z,7.10
2018-08-23T21:53:14.578Z,7.47
2018-08-23T21:55:43.317Z,8.60
2018-08-23T21:58:12.391Z,8.57
2018-08-23T22:00:46.285Z,10.03
2018-08-23T22:03:15.035Z,11.27
2018-08-23T22:05:43.725Z,6.73
2018-08-23T22:08:12.599Z,9.37
2018-08-23T22:10:41.360Z,7.03
2018-08-23T22:13:10.075Z,8.27
2018-08-23T22:15:45.862Z,6.20
2018-08-23T22:18:14.782Z,8.10
2018-08-23T22:21:46.122Z,8.40
2018-08-23T22:24:14.927Z,9.13
2018-08-23T22:26:43.645Z,6.80
2018-08-23T22:29:12.296Z,9.13
2018-08-23T22:31:41.024Z,11.57
2018-08-23T22:34:09.759Z,8.20
2018-08-23T22:36:38.487Z,6.63
2018-08-23T22:39:08.123Z,7.53
2018-08-23T22:41:36.851Z,7.73
2018-08-23T22:44:05.599Z,7.07
2018-08-23T22:46:34.276Z,8.10
2018-08-23T22:49:03.267Z,7.40
2018-08-23T22:51:31.961Z,8.33
2018-08-23T22:54:00.618Z,8.50
2018-08-23T22:56:30.510Z,8.63
2018-08-23T22:58:59.203Z,11.33
2018-08-23T23:01:27.863Z,7.37
2018-08-23T23:04:01.732Z,8.43
2018-08-23T23:06:31.038Z,5.70
2018-08-23T23:08:59.722Z,8.80
2018-08-23T23:11:28.521Z,6.33
2018-08-23T23:13:57.216Z,7.37
2018-08-23T23:16:26.078Z,6.70
2018-08-23T23:18:54.711Z,6.30
2018-08-23T23:21:23.390Z,6.17
2018-08-23T23:23:52.442Z,5.63
2018-08-23T23:26:21.122Z,7.07
2018-08-23T23:28:49.913Z,6.43
2018-08-23T23:31:18.759Z,7.07
2018-08-23T23:33:47.430Z,6.80
2018-08-23T23:36:16.310Z,7.13
2018-08-23T23:38:44.990Z,6.13
2018-08-23T23:41:13.854Z,9.13
2018-08-23T23:43:42.676Z,8.53
2018-08-23T23:46:11.500Z,6.43
2018-08-23T23:50:09.836Z,4.97
2018-08-23T23:52:38.580Z,9.77
2018-08-23T23:55:07.342Z,6.10
2018-08-23T23:57:36.097Z,7.87
